Time;durP1;ratioP1;P1;durP2;ratioP2;P2;SDS_P1;SDS_P2;PMS_P1;PMS_P2;Temp;Humidity;BMP_temperature;BMP_pressure;BME280_temperature;BME280_humidity;BME280_pressure;Samples;Min_cycle;Max_cycle;Signal;HPM_P1;HPM_P2
2022/06/07 00:01:31;;;;;;;0.08;0.08;;;29.50;36.00;;;;;;5057771;28;20041;-67
2022/06/07 00:03:58;;;;;;;1.08;0.10;;;29.50;36.00;;;;;;5057351;28;20059;-65
2022/06/07 00:06:25;;;;;;;1.58;0.10;;;29.40;36.60;;;;;;5062480;28;20671;-63
2022/06/07 00:08:52;;;;;;;0.10;0.00;;;29.40;36.00;;;;;;5064391;28;20041;-58
2022/06/07 00:11:19;;;;;;;0.00;0.00;;;29.50;36.20;;;;;;5052566;28;20045;-59
2022/06/07 00:13:47;;;;;;;2.15;0.00;;;29.40;36.10;;;;;;5058699;28;20045;-60
2022/06/07 00:16:17;;;;;;;0.00;0.00;;;29.40;36.20;;;;;;5057540;28;20072;-63
2022/06/07 00:18:44;;;;;;;0.00;0.00;;;29.40;36.30;;;;;;5062509;28;20036;-70
2022/06/07 00:21:12;;;;;;;0.70;0.00;;;29.40;36.40;;;;;;5062292;28;20539;-62
2022/06/07 00:23:40;;;;;;;0.75;0.08;;;29.40;36.50;;;;;;5059440;28;20116;-63
2022/06/07 00:26:07;;;;;;;0.63;0.05;;;29.40;36.60;;;;;;5062664;28;20040;-64
2022/06/07 00:28:34;;;;;;;0.43;0.10;;;29.30;36.60;;;;;;5052435;28;20049;-60
2022/06/07 00:31:01;;;;;;;0.00;0.00;;;29.30;36.70;;;;;;5054781;28;20063;-59
2022/06/07 00:33:30;;;;;;;0.00;0.00;;;29.30;36.90;;;;;;5063192;28;20063;-61
2022/06/07 00:35:57;;;;;;;0.32;0.00;;;29.30;36.90;;;;;;5052436;28;20044;-59
2022/06/07 00:38:24;;;;;;;3.42;0.10;;;29.20;36.90;;;;;;5058406;28;20052;-52
2022/06/07 00:40:51;;;;;;;1.77;0.03;;;29.20;37.00;;;;;;5052609;28;20036;-43
2022/06/07 00:43:23;;;;;;;2.53;0.10;;;29.10;36.90;;;;;;5062029;28;20052;-47
2022/06/07 00:45:50;;;;;;;1.17;0.43;;;29.00;37.10;;;;;;5063758;28;20045;-47
2022/06/07 00:48:18;;;;;;;5.47;0.10;;;28.80;37.30;;;;;;5058255;28;20043;-49
2022/06/07 00:50:51;;;;;;;3.63;0.05;;;28.60;37.50;;;;;;5059044;28;20571;-46
2022/06/07 00:53:24;;;;;;;2.53;0.08;;;28.50;37.80;;;;;;5059360;28;20044;-45
2022/06/07 00:55:52;;;;;;;3.42;0.47;;;28.40;38.00;;;;;;5053881;28;20064;-48
2022/06/07 00:58:21;;;;;;;3.20;0.25;;;28.20;38.10;;;;;;5063214;28;20513;-52
2022/06/07 01:00:48;;;;;;;5.43;0.03;;;28.10;38.40;;;;;;5058468;28;20044;-47
2022/06/07 01:03:20;;;;;;;3.72;0.28;;;27.90;38.50;;;;;;5058174;28;20036;-46
2022/06/07 01:05:53;;;;;;;1.48;0.40;;;27.80;38.70;;;;;;5058498;28;20036;-46
2022/06/07 01:11:11;;;;;;;2.85;0.10;;;27.70;39.20;;;;;;5058719;28;20053;-46
2022/06/07 01:13:38;;;;;;;3.78;0.20;;;27.60;39.40;;;;;;5051217;28;20094;-51
2022/06/07 01:16:16;;;;;;;1.50;0.03;;;27.50;39.60;;;;;;5062209;28;20061;-46
2022/06/07 01:18:46;;;;;;;3.50;0.00;;;27.40;39.80;;;;;;5059590;28;20044;-49
2022/06/07 01:21:31;;;;;;;1.80;0.25;;;27.30;40.00;;;;;;5058084;28;20102;-50
2022/06/07 01:23:59;;;;;;;10.73;0.63;;;27.20;40.20;;;;;;5062540;28;20041;-46
2022/06/07 01:26:33;;;;;;;2.58;0.65;;;27.20;40.40;;;;;;5061125;28;20580;-48
2022/06/07 01:29:04;;;;;;;4.18;0.95;;;27.10;40.60;;;;;;5061435;28;20032;-44
2022/06/07 01:31:32;;;;;;;3.72;0.38;;;27.00;40.80;;;;;;5059932;28;20040;-50
2022/06/07 01:33:59;;;;;;;1.35;0.00;;;27.00;41.00;;;;;;5062165;28;20131;-47
2022/06/07 01:36:28;;;;;;;1.42;0.00;;;26.90;41.20;;;;;;5060820;28;20444;-47
2022/06/07 01:41:55;;;;;;;1.65;0.00;;;26.80;41.50;;;;;;5055777;28;20447;-50
2022/06/07 01:44:27;;;;;;;10.80;0.00;;;26.80;41.70;;;;;;5057504;28;20048;-49
2022/06/07 01:46:56;;;;;;;3.55;0.20;;;26.70;42.00;;;;;;5051230;28;20052;-48
2022/06/07 01:49:24;;;;;;;1.25;0.00;;;26.70;42.20;;;;;;5050909;28;20073;-49
2022/06/07 01:51:54;;;;;;;0.28;0.10;;;26.60;42.30;;;;;;5053896;28;20513;-48
2022/06/07 01:54:23;;;;;;;3.17;0.30;;;26.60;42.40;;;;;;5064876;28;20102;-48
2022/06/07 01:56:52;;;;;;;0.52;0.00;;;26.60;42.50;;;;;;5049332;28;20056;-48
2022/06/07 01:59:20;;;;;;;0.52;0.10;;;26.50;42.50;;;;;;5046835;28;20045;-46
2022/06/07 02:01:48;;;;;;;2.00;0.10;;;26.50;42.60;;;;;;5050713;28;20132;-50
2022/06/07 02:04:15;;;;;;;2.38;0.10;;;26.50;42.80;;;;;;5052218;28;20047;-48
2022/06/07 02:06:43;;;;;;;0.43;0.10;;;26.40;42.80;;;;;;5049072;28;20045;-49
2022/06/07 02:09:14;;;;;;;3.03;0.10;;;26.40;42.90;;;;;;5052660;28;20512;-45
2022/06/07 02:11:41;;;;;;;3.72;0.55;;;26.40;43.00;;;;;;5029650;28;20056;-48
2022/06/07 02:14:10;;;;;;;0.30;0.00;;;26.30;43.00;;;;;;5031271;28;20312;-46
2022/06/07 02:16:38;;;;;;;0.40;0.00;;;26.30;43.20;;;;;;5030656;28;20609;-46
2022/06/07 02:19:06;;;;;;;0.08;0.08;;;26.30;43.30;;;;;;5042856;28;20049;-51
2022/06/07 02:21:40;;;;;;;0.43;0.00;;;26.30;43.40;;;;;;5037642;28;20660;-51
2022/06/07 02:24:10;;;;;;;2.28;0.10;;;26.30;43.50;;;;;;5039597;28;20135;-49
2022/06/07 02:26:41;;;;;;;0.28;0.10;;;26.30;43.70;;;;;;5030676;28;20455;-50
2022/06/07 02:29:11;;;;;;;1.83;0.00;;;26.20;43.60;;;;;;5031767;28;20041;-49
2022/06/07 02:31:41;;;;;;;1.23;0.00;;;26.20;43.80;;;;;;5030250;28;20083;-46
2022/06/07 02:34:10;;;;;;;1.30;0.20;;;26.20;43.90;;;;;;5036584;28;20041;-48
2022/06/07 02:36:38;;;;;;;0.00;0.00;;;26.20;44.10;;;;;;5033571;28;20038;-47
2022/06/07 02:39:05;;;;;;;0.57;0.20;;;26.20;44.20;;;;;;5029614;28;20200;-48
2022/06/07 02:41:35;;;;;;;0.25;0.25;;;26.20;44.30;;;;;;5028603;28;20052;-48
2022/06/07 02:44:03;;;;;;;0.20;0.05;;;26.20;44.50;;;;;;5026278;28;20128;-49
2022/06/07 02:46:30;;;;;;;1.95;0.05;;;26.20;44.60;;;;;;5033078;28;20653;-49
2022/06/07 02:48:57;;;;;;;0.13;0.10;;;26.10;44.60;;;;;;5029555;28;20040;-49
2022/06/07 02:51:26;;;;;;;6.03;0.43;;;26.10;44.60;;;;;;5031864;28;20052;-46
2022/06/07 02:53:56;;;;;;;0.65;0.10;;;26.20;44.80;;;;;;5029810;28;20051;-49
2022/06/07 02:56:24;;;;;;;0.45;0.20;;;26.20;44.80;;;;;;5030124;28;20029;-48
2022/06/07 02:58:51;;;;;;;0.75;0.00;;;26.10;45.40;;;;;;5027235;28;20061;-49
2022/06/07 03:01:20;;;;;;;0.00;0.00;;;26.10;44.90;;;;;;5035158;28;20045;-53
2022/06/07 03:03:48;;;;;;;2.67;0.08;;;26.10;45.00;;;;;;5033619;28;20045;-51
2022/06/07 03:06:15;;;;;;;1.08;0.10;;;26.10;45.10;;;;;;5028739;28;20069;-45
2022/06/07 03:08:44;;;;;;;0.50;0.08;;;26.10;45.20;;;;;;5029239;28;20045;-49
2022/06/07 03:11:11;;;;;;;0.10;0.10;;;26.00;45.10;;;;;;5045599;28;20056;-49
2022/06/07 03:13:41;;;;;;;0.55;0.00;;;26.00;45.10;;;;;;5053125;28;20049;-47
2022/06/07 03:16:15;;;;;;;0.32;0.08;;;26.00;45.10;;;;;;5057805;28;20041;-49
2022/06/07 03:18:44;;;;;;;0.10;0.00;;;26.00;45.20;;;;;;5052567;28;20051;-48
2022/06/07 03:21:11;;;;;;;0.00;0.00;;;26.00;45.20;;;;;;5053723;28;20040;-51
2022/06/07 03:23:42;;;;;;;0.00;0.00;;;26.00;45.20;;;;;;5049376;28;20047;-47
2022/06/07 03:26:14;;;;;;;0.35;0.00;;;26.00;45.30;;;;;;5059048;28;20033;-49
2022/06/07 03:29:01;;;;;;;2.65;0.10;;;26.00;45.30;;;;;;5049328;28;20057;-51
2022/06/07 03:31:28;;;;;;;0.10;0.10;;;26.00;45.40;;;;;;5056694;28;20053;-47
2022/06/07 03:34:00;;;;;;;0.98;0.10;;;26.00;45.40;;;;;;5049427;28;20045;-46
2022/06/07 03:36:33;;;;;;;0.65;0.00;;;26.00;45.60;;;;;;5056756;28;20041;-46
2022/06/07 03:39:06;;;;;;;0.00;0.00;;;26.00;45.60;;;;;;5056090;28;20044;-46
2022/06/07 03:41:36;;;;;;;0.10;0.10;;;26.00;45.60;;;;;;5063241;28;20049;-44
2022/06/07 03:44:12;;;;;;;0.00;0.00;;;25.90;45.60;;;;;;5064976;28;20037;-47
2022/06/07 03:46:45;;;;;;;0.10;0.10;;;25.90;45.60;;;;;;5054878;28;20064;-52
2022/06/07 03:49:16;;;;;;;0.10;0.00;;;25.90;45.70;;;;;;5068497;28;20406;-52
2022/06/07 03:51:43;;;;;;;0.82;0.05;;;26.00;45.80;;;;;;5056232;28;20859;-47
2022/06/07 03:54:11;;;;;;;0.22;0.10;;;25.90;45.70;;;;;;5054458;28;20048;-47
2022/06/07 03:56:40;;;;;;;0.22;0.00;;;25.90;46.00;;;;;;5051911;28;20043;-48
2022/06/07 03:59:08;;;;;;;1.17;0.10;;;25.90;45.90;;;;;;5047927;28;20037;-46
2022/06/07 04:01:35;;;;;;;0.10;0.10;;;25.90;46.00;;;;;;5051140;28;20052;-48
2022/06/07 04:04:06;;;;;;;2.20;0.00;;;25.90;46.00;;;;;;5060089;28;20048;-45
2022/06/07 04:06:40;;;;;;;0.10;0.10;;;25.90;46.10;;;;;;5052351;28;20037;-49
2022/06/07 04:09:17;;;;;;;0.00;0.00;;;25.90;46.10;;;;;;5054576;28;20059;-51
2022/06/07 04:11:47;;;;;;;0.10;0.10;;;25.90;46.20;;;;;;5052229;28;20048;-47
2022/06/07 04:14:14;;;;;;;0.10;0.00;;;25.90;46.30;;;;;;5054578;28;20068;-46
2022/06/07 04:16:42;;;;;;;0.10;0.00;;;25.90;46.40;;;;;;5050217;28;20102;-45
2022/06/07 04:19:18;;;;;;;0.65;0.10;;;25.90;46.40;;;;;;5055010;28;20519;-44
2022/06/07 04:21:47;;;;;;;0.00;0.00;;;25.80;46.40;;;;;;5058124;28;20660;-47
2022/06/07 04:24:34;;;;;;;0.20;0.00;;;25.90;46.60;;;;;;5051485;28;20076;-48
2022/06/07 04:27:02;;;;;;;0.20;0.05;;;25.80;46.70;;;;;;5054626;28;20789;-45
2022/06/07 04:29:30;;;;;;;0.30;0.10;;;25.80;46.70;;;;;;5054898;28;20766;-45
2022/06/07 04:31:58;;;;;;;1.08;0.20;;;25.80;46.70;;;;;;5054380;28;20068;-53
2022/06/07 04:34:26;;;;;;;0.10;0.10;;;25.80;47.00;;;;;;5052570;28;20118;-53
2022/06/07 04:36:55;;;;;;;0.00;0.00;;;25.80;47.00;;;;;;5059268;28;20053;-51
2022/06/07 04:39:27;;;;;;;0.20;0.03;;;25.80;47.10;;;;;;5075312;28;20382;-50
2022/06/07 04:42:02;;;;;;;;;;;25.80;47.20;;;;;;5052311;28;20118;-46
2022/06/07 04:44:41;;;;;;;0.00;0.00;;;25.80;47.00;;;;;;5051620;28;19924;-50
2022/06/07 04:47:09;;;;;;;0.20;0.00;;;25.80;47.40;;;;;;5052239;28;20505;-48
2022/06/07 04:49:36;;;;;;;0.00;0.00;;;25.80;47.40;;;;;;5057157;28;20045;-47
2022/06/07 04:52:05;;;;;;;0.10;0.00;;;25.80;47.30;;;;;;5070729;28;20052;-47
2022/06/07 04:54:37;;;;;;;0.13;0.00;;;25.80;47.40;;;;;;5057001;28;20037;-46
2022/06/07 04:57:07;;;;;;;0.73;0.10;;;25.80;47.40;;;;;;5051692;28;20101;-48
2022/06/07 04:59:38;;;;;;;0.10;0.10;;;25.70;47.40;;;;;;5052501;28;20757;-51
2022/06/07 05:02:05;;;;;;;0.00;0.00;;;25.80;47.50;;;;;;5057632;28;20048;-45
2022/06/07 05:04:33;;;;;;;0.10;0.10;;;25.70;47.50;;;;;;5055710;28;20577;-54
2022/06/07 05:07:14;;;;;;;0.85;0.00;;;25.70;47.60;;;;;;5053047;28;20044;-51
2022/06/07 05:10:00;;;;;;;0.00;0.00;;;25.80;47.70;;;;;;5055793;28;20831;-49
2022/06/07 05:12:39;;;;;;;0.65;0.00;;;25.70;47.70;;;;;;5054775;28;20528;-52
2022/06/07 05:15:09;;;;;;;3.30;0.40;;;25.70;47.70;;;;;;5058606;28;20037;-47
2022/06/07 05:17:47;;;;;;;0.00;0.00;;;25.80;47.80;;;;;;5051110;28;20052;-49
2022/06/07 05:20:15;;;;;;;0.10;0.00;;;25.70;47.80;;;;;;5054691;28;20041;-47
2022/06/07 05:22:46;;;;;;;0.45;0.00;;;25.70;47.80;;;;;;5053635;28;20486;-46
2022/06/07 05:25:18;;;;;;;0.05;0.00;;;25.70;47.90;;;;;;5064040;28;20097;-46
2022/06/07 05:27:50;;;;;;;0.10;0.00;;;25.70;47.90;;;;;;5053687;28;20127;-50
2022/06/07 05:30:21;;;;;;;0.83;0.00;;;25.70;47.90;;;;;;5055438;28;20041;-46
2022/06/07 05:32:57;;;;;;;0.45;0.10;;;25.70;48.00;;;;;;5066559;28;20417;-47
2022/06/07 05:35:43;;;;;;;1.30;0.28;;;25.70;48.00;;;;;;5051209;28;20041;-47
2022/06/07 05:38:17;;;;;;;0.10;0.00;;;25.70;48.10;;;;;;5050718;28;20127;-52
2022/06/07 05:40:52;;;;;;;0.10;0.00;;;25.70;48.10;;;;;;5061350;28;20041;-46
2022/06/07 05:43:20;;;;;;;0.43;0.00;;;25.70;48.10;;;;;;5054281;28;20123;-45
2022/06/07 05:45:53;;;;;;;0.10;0.10;;;25.70;48.10;;;;;;5053264;28;20542;-48
2022/06/07 05:48:35;;;;;;;0.00;0.00;;;25.70;48.10;;;;;;5071850;28;20055;-49
2022/06/07 05:51:05;;;;;;;1.98;0.00;;;25.70;48.10;;;;;;5066133;28;20382;-51
2022/06/07 05:53:34;;;;;;;1.33;0.00;;;25.70;48.10;;;;;;5062005;28;20053;-47
2022/06/07 05:56:06;;;;;;;0.10;0.03;;;25.70;48.10;;;;;;5033677;28;20041;-50
2022/06/07 05:58:33;;;;;;;0.00;0.00;;;25.70;48.10;;;;;;5054159;28;20044;-47
2022/06/07 06:01:01;;;;;;;0.30;0.00;;;25.70;48.10;;;;;;5050362;28;20049;-47
2022/06/07 06:03:29;;;;;;;0.10;0.10;;;25.70;48.10;;;;;;5053859;28;20773;-49
2022/06/07 06:05:58;;;;;;;0.47;0.00;;;25.70;48.20;;;;;;5052415;28;20159;-47
2022/06/07 06:11:24;;;;;;;0.05;0.00;;;25.70;48.20;;;;;;5048390;28;20041;-47
2022/06/07 06:14:06;;;;;;;1.73;0.15;;;25.70;48.20;;;;;;5051388;28;20048;-47
2022/06/07 06:16:34;;;;;;;1.35;0.25;;;25.70;48.20;;;;;;5053828;28;20048;-49
2022/06/07 06:19:02;;;;;;;0.55;0.08;;;25.70;48.20;;;;;;5058300;28;20037;-48
2022/06/07 06:21:46;;;;;;;0.00;0.00;;;25.70;48.20;;;;;;5055390;28;20080;-50
2022/06/07 06:24:17;;;;;;;0.20;0.20;;;25.70;48.30;;;;;;5057177;28;20094;-51
2022/06/07 06:26:45;;;;;;;0.47;0.00;;;25.70;48.30;;;;;;5051334;28;20115;-48
2022/06/07 06:29:16;;;;;;;0.52;0.08;;;25.70;48.30;;;;;;5047457;28;20043;-47
2022/06/07 06:31:46;;;;;;;0.75;0.08;;;25.70;48.30;;;;;;5051707;28;20072;-48
2022/06/07 06:34:15;;;;;;;0.00;0.00;;;25.70;48.30;;;;;;5065064;28;20060;-51
2022/06/07 06:36:44;;;;;;;0.10;0.10;;;25.70;48.40;;;;;;5053744;28;20127;-49
2022/06/07 06:39:12;;;;;;;0.10;0.10;;;25.70;48.40;;;;;;5060680;28;20032;-50
2022/06/07 06:41:47;;;;;;;3.60;0.47;;;25.70;48.40;;;;;;5053549;28;20068;-47
2022/06/07 06:44:17;;;;;;;0.00;0.00;;;25.70;48.50;;;;;;5051732;28;20037;-44
2022/06/07 06:46:48;;;;;;;3.20;0.10;;;25.70;48.60;;;;;;5076886;28;20172;-50
2022/06/07 06:49:20;;;;;;;3.80;0.22;;;25.70;48.40;;;;;;5061343;28;20041;-46
2022/06/07 06:51:48;;;;;;;0.77;0.17;;;25.60;48.60;;;;;;5058451;28;20090;-48
2022/06/07 06:54:18;;;;;;;0.10;0.00;;;25.50;49.10;;;;;;5057895;28;20036;-47
2022/06/07 06:57:07;;;;;;;0.57;0.10;;;25.30;49.10;;;;;;5052519;28;20049;-48
2022/06/07 06:59:36;;;;;;;0.30;0.10;;;25.20;49.30;;;;;;5053287;28;20078;-47
2022/06/07 07:02:04;;;;;;;1.48;0.10;;;25.10;49.60;;;;;;5061813;28;20687;-47
2022/06/07 07:04:46;;;;;;;4.30;0.10;;;25.00;50.00;;;;;;5048123;28;20049;-48
2022/06/07 07:07:14;;;;;;;1.67;0.00;;;24.90;50.20;;;;;;5056265;28;20037;-48
2022/06/07 07:09:42;;;;;;;0.77;0.10;;;24.90;50.50;;;;;;5050600;28;20081;-58
2022/06/07 07:12:12;;;;;;;0.20;0.00;;;24.80;50.70;;;;;;5056615;28;20044;-60
2022/06/07 07:14:48;;;;;;;1.35;0.00;;;24.80;50.80;;;;;;5053957;28;20072;-62
2022/06/07 07:17:21;;;;;;;0.38;0.00;;;24.70;50.80;;;;;;5060268;28;20535;-58
2022/06/07 07:19:51;;;;;;;0.10;0.10;;;24.70;50.90;;;;;;5057002;28;20128;-63
2022/06/07 07:22:22;;;;;;;1.88;0.57;;;24.60;50.90;;;;;;5059882;28;20150;-59
2022/06/07 07:24:50;;;;;;;12.45;0.17;;;24.60;51.10;;;;;;5060101;28;20048;-61
2022/06/07 07:27:20;;;;;;;0.00;0.00;;;24.60;51.30;;;;;;5063708;28;20040;-64
2022/06/07 07:29:48;;;;;;;0.00;0.00;;;24.60;51.10;;;;;;5058205;28;20510;-63
2022/06/07 07:32:21;;;;;;;2.10;0.00;;;24.70;51.00;;;;;;5046766;28;20154;-64
2022/06/07 07:34:52;;;;;;;0.05;0.00;;;24.80;50.50;;;;;;5066897;28;20055;-61
2022/06/07 07:37:20;;;;;;;0.90;0.00;;;24.90;50.30;;;;;;5068605;28;20488;-63
2022/06/07 07:39:51;;;;;;;0.25;0.10;;;25.10;50.00;;;;;;5065268;28;20052;-64
2022/06/07 07:42:24;;;;;;;0.43;0.00;;;25.20;49.40;;;;;;5073126;28;20044;-64
2022/06/07 07:45:05;;;;;;;0.20;0.00;;;25.40;49.30;;;;;;5069313;28;20044;-55
2022/06/07 07:47:33;;;;;;;0.00;0.00;;;25.50;49.10;;;;;;5069143;28;20049;-53
2022/06/07 07:50:00;;;;;;;1.80;0.08;;;25.60;49.00;;;;;;5059707;28;20520;-53
2022/06/07 07:52:29;;;;;;;0.10;0.00;;;25.60;48.70;;;;;;5059538;28;20076;-53
2022/06/07 07:55:02;;;;;;;0.90;0.05;;;25.70;48.70;;;;;;5055145;28;20064;-54
2022/06/07 07:57:31;;;;;;;0.73;0.00;;;25.80;48.80;;;;;;5055771;28;20051;-56
2022/06/07 07:59:59;;;;;;;0.52;0.10;;;25.90;48.70;;;;;;5055089;28;20445;-54
2022/06/07 08:02:26;;;;;;;1.17;0.00;;;26.00;48.80;;;;;;5056388;28;20044;-57
2022/06/07 08:05:05;;;;;;;1.38;0.00;;;26.10;48.50;;;;;;5062071;28;20547;-60
2022/06/07 08:07:34;;;;;;;0.10;0.00;;;26.10;48.40;;;;;;5051529;28;20501;-51
2022/06/07 08:10:02;;;;;;;0.00;0.00;;;26.20;48.20;;;;;;5052224;28;20523;-53
2022/06/07 08:12:32;;;;;;;0.15;0.15;;;26.30;48.00;;;;;;5059492;28;20058;-61
2022/06/07 08:14:59;;;;;;;0.65;0.00;;;26.30;47.80;;;;;;5063380;28;20048;-61
2022/06/07 08:17:27;;;;;;;1.30;0.10;;;26.40;47.60;;;;;;5058068;28;20041;-70
2022/06/07 08:19:54;;;;;;;4.20;0.10;;;26.40;47.40;;;;;;5066477;28;20049;-51
2022/06/07 08:22:22;;;;;;;2.63;0.10;;;26.50;47.20;;;;;;5066629;28;20131;-52
2022/06/07 08:24:49;;;;;;;0.55;0.00;;;26.50;47.20;;;;;;5062172;28;20051;-53
2022/06/07 08:27:16;;;;;;;1.42;0.00;;;26.60;47.10;;;;;;5058738;28;20079;-57
2022/06/07 08:29:45;;;;;;;3.72;0.10;;;26.60;47.00;;;;;;5058081;28;20041;-53
2022/06/07 08:32:12;;;;;;;0.20;0.10;;;26.60;46.90;;;;;;5053219;28;20770;-47
2022/06/07 08:37:38;;;;;;;0.88;0.00;;;26.70;46.80;;;;;;5055590;28;20051;-56
2022/06/07 08:40:10;;;;;;;0.52;0.10;;;26.80;46.70;;;;;;5058342;28;20144;-58
2022/06/07 08:42:42;;;;;;;1.30;0.00;;;26.80;46.20;;;;;;5053559;28;20067;-59
2022/06/07 08:45:16;;;;;;;0.40;0.40;;;26.80;46.10;;;;;;5053485;28;20065;-58
2022/06/07 08:47:49;;;;;;;2.53;0.22;;;26.80;45.70;;;;;;5052215;28;20044;-61
2022/06/07 08:50:21;;;;;;;0.10;0.00;;;26.90;45.80;;;;;;5054689;28;20040;-57
2022/06/07 08:52:51;;;;;;;0.10;0.00;;;26.90;45.40;;;;;;5069053;28;20037;-59
2022/06/07 08:55:23;;;;;;;0.13;0.10;;;26.90;45.50;;;;;;5059005;28;20067;-58
2022/06/07 08:57:56;;;;;;;0.85;0.10;;;27.00;45.70;;;;;;5066458;28;20073;-54
2022/06/07 09:00:28;;;;;;;0.82;0.15;;;27.00;45.40;;;;;;5075107;28;20036;-55
2022/06/07 09:03:36;;;;;;;2.55;0.10;;;27.00;45.30;;;;;;5063968;28;20044;-57
2022/06/07 09:06:06;;;;;;;0.32;0.00;;;27.10;44.60;;;;;;5058299;28;20048;-57
2022/06/07 09:08:36;;;;;;;0.10;0.00;;;27.10;43.90;;;;;;5062187;28;20047;-55
2022/06/07 09:13:51;;;;;;;0.75;0.00;;;27.10;43.70;;;;;;5051881;28;20041;-56
2022/06/07 09:16:20;;;;;;;0.00;0.00;;;27.10;43.70;;;;;;5057450;28;20579;-61
2022/06/07 09:18:51;;;;;;;0.08;0.00;;;27.10;43.90;;;;;;5056628;28;20673;-61
2022/06/07 09:21:27;;;;;;;0.08;0.00;;;27.10;43.50;;;;;;5054122;28;20072;-61
2022/06/07 09:23:57;;;;;;;0.10;0.08;;;27.20;43.50;;;;;;5055000;28;20048;-53
2022/06/07 09:26:27;;;;;;;0.00;0.00;;;27.20;43.30;;;;;;5060149;28;20041;-55
2022/06/07 09:29:07;;;;;;;0.63;0.00;;;27.20;43.10;;;;;;5062431;28;20049;-56
2022/06/07 09:31:41;;;;;;;0.70;0.17;;;27.20;42.70;;;;;;5054621;28;20122;-60
2022/06/07 09:34:16;;;;;;;0.32;0.10;;;27.20;42.50;;;;;;5062531;28;20128;-63
2022/06/07 09:36:47;;;;;;;0.80;0.00;;;27.20;42.30;;;;;;5063070;28;20041;-58
2022/06/07 09:39:18;;;;;;;1.02;0.00;;;27.20;41.80;;;;;;5065924;28;20044;-56
2022/06/07 09:41:49;;;;;;;0.30;0.22;;;27.20;41.20;;;;;;5069848;28;20076;-65
2022/06/07 09:44:22;;;;;;;0.38;0.00;;;27.20;41.10;;;;;;5069482;28;20041;-59
2022/06/07 09:46:58;;;;;;;0.10;0.00;;;27.20;40.90;;;;;;5065561;28;20037;-63
2022/06/07 09:49:30;;;;;;;0.30;0.00;;;27.20;41.20;;;;;;5063047;28;20041;-58
2022/06/07 09:52:12;;;;;;;0.88;0.00;;;27.20;41.20;;;;;;5065938;28;20049;-58
2022/06/07 09:54:43;;;;;;;0.20;0.00;;;27.20;41.30;;;;;;5057926;28;20048;-53
2022/06/07 09:57:21;;;;;;;0.13;0.08;;;27.20;41.30;;;;;;5054677;28;20135;-59
2022/06/07 10:00:05;;;;;;;1.45;0.00;;;27.20;41.00;;;;;;5056175;28;20144;-53
2022/06/07 10:03:03;;;;;;;1.65;0.32;;;27.20;40.70;;;;;;5062538;28;20504;-53
2022/06/07 10:05:36;;;;;;;3.92;0.00;;;27.30;40.70;;;;;;5053694;28;20400;-56
2022/06/07 10:08:30;;;;;;;0.00;0.00;;;27.30;40.60;;;;;;5055355;28;20044;-64
2022/06/07 10:11:03;;;;;;;0.00;0.00;;;27.40;40.60;;;;;;5055294;28;20103;-63
2022/06/07 10:13:46;;;;;;;0.20;0.00;;;27.40;40.80;;;;;;5065542;28;20086;-62
2022/06/07 10:16:25;;;;;;;0.90;0.90;;;27.50;40.60;;;;;;5064724;28;20045;-65
2022/06/07 10:19:04;;;;;;;0.22;0.00;;;27.50;40.40;;;;;;5061892;28;20053;-63
2022/06/07 10:21:49;;;;;;;0.20;0.20;;;27.50;40.50;;;;;;5054365;28;20045;-59
2022/06/07 10:24:26;;;;;;;0.65;0.00;;;27.60;40.50;;;;;;5053864;28;20044;-61
2022/06/07 10:27:04;;;;;;;2.28;0.03;;;27.60;40.10;;;;;;5047661;28;20382;-59
2022/06/07 10:29:54;;;;;;;0.75;0.00;;;27.70;39.80;;;;;;5052863;28;20038;-59
2022/06/07 10:32:28;;;;;;;0.28;0.00;;;27.70;39.60;;;;;;5054215;28;20581;-59
2022/06/07 10:35:03;;;;;;;0.95;0.45;;;27.70;39.70;;;;;;5049874;28;20118;-58
2022/06/07 10:37:34;;;;;;;;;;;27.80;39.60;;;;;;5067671;28;20386;-60
2022/06/07 10:40:13;;;;;;;0.68;0.00;;;27.80;39.40;;;;;;5051658;28;19975;-59
2022/06/07 10:42:47;;;;;;;6.72;0.30;;;27.70;38.80;;;;;;5056017;28;20465;-64
2022/06/07 10:45:19;;;;;;;0.32;0.00;;;27.80;38.80;;;;;;5057913;28;20115;-55
2022/06/07 10:47:57;;;;;;;1.10;0.00;;;27.80;38.60;;;;;;5052580;28;20052;-60
2022/06/07 10:50:30;;;;;;;0.40;0.00;;;27.80;38.70;;;;;;5062378;28;20419;-50
2022/06/07 10:53:03;;;;;;;0.45;0.00;;;27.80;39.00;;;;;;5067114;28;20072;-57
2022/06/07 10:55:35;;;;;;;0.13;0.00;;;27.80;39.10;;;;;;5066242;28;20415;-59
2022/06/07 10:58:25;;;;;;;1.30;0.00;;;27.80;38.80;;;;;;5066465;28;20040;-57
2022/06/07 11:00:55;;;;;;;0.00;0.00;;;27.90;38.60;;;;;;5066629;28;20040;-59
2022/06/07 11:03:32;;;;;;;0.45;0.10;;;27.90;38.30;;;;;;5066184;28;20120;-58
2022/06/07 11:11:44;;;;;;;0.30;0.20;;;27.90;38.20;;;;;;5057622;28;20052;-54
2022/06/07 11:14:33;;;;;;;0.00;0.00;;;27.90;38.50;;;;;;5065009;28;20075;-53
2022/06/07 11:17:06;;;;;;;0.13;0.00;;;27.90;38.50;;;;;;5054499;28;20048;-52
2022/06/07 11:19:34;;;;;;;1.38;0.20;;;27.90;38.40;;;;;;5062913;28;20048;-53
2022/06/07 11:22:06;;;;;;;0.28;0.00;;;28.00;38.30;;;;;;5061327;28;20052;-55
2022/06/07 11:24:36;;;;;;;2.90;0.00;;;28.00;38.30;;;;;;5062011;28;20107;-56
2022/06/07 11:27:19;;;;;;;0.68;0.00;;;28.10;38.50;;;;;;5061338;28;20053;-55
2022/06/07 11:29:48;;;;;;;0.05;0.00;;;28.10;38.20;;;;;;5060683;28;20045;-50
2022/06/07 11:32:42;;;;;;;2.17;0.10;;;28.10;37.80;;;;;;5057059;28;20045;-44
2022/06/07 11:35:44;;;;;;;0.35;0.00;;;28.20;37.40;;;;;;5048826;28;20033;-48
2022/06/07 11:38:24;;;;;;;0.22;0.00;;;28.30;37.10;;;;;;5056244;28;20052;-57
2022/06/07 11:41:36;;;;;;;0.30;0.00;;;28.30;37.10;;;;;;5056095;28;20057;-50
2022/06/07 11:43:56;;;;;;;0.20;0.00;;;28.50;37.10;;;;;;5061635;28;20155;-56
2022/06/07 11:46:27;;;;;;;0.85;0.13;;;28.60;36.50;;;;;;5064748;28;20755;-56
2022/06/07 11:48:55;;;;;;;0.20;0.00;;;28.70;36.20;;;;;;5060523;28;20040;-55
2022/06/07 11:51:23;;;;;;;0.47;0.00;;;28.90;36.00;;;;;;5058020;28;20094;-52
2022/06/07 11:53:59;;;;;;;0.00;0.00;;;29.00;35.70;;;;;;5050244;28;20044;-58
2022/06/07 11:56:36;;;;;;;0.00;0.00;;;29.20;35.40;;;;;;5046958;28;20152;-57
2022/06/07 11:59:32;;;;;;;0.00;0.00;;;29.30;35.50;;;;;;5051927;28;21067;-54
2022/06/07 12:02:23;;;;;;;1.42;0.00;;;29.40;35.40;;;;;;5052885;28;20044;-54
2022/06/07 12:05:11;;;;;;;0.30;0.00;;;29.50;35.30;;;;;;5045795;28;20432;-51
2022/06/07 12:07:48;;;;;;;1.52;0.00;;;29.50;35.60;;;;;;5048459;28;20095;-61
2022/06/07 12:10:30;;;;;;;0.30;0.00;;;29.50;35.80;;;;;;5057449;28;20521;-59
2022/06/07 12:12:59;;;;;;;0.40;0.00;;;29.60;35.80;;;;;;5050811;28;20054;-58
2022/06/07 12:15:32;;;;;;;0.03;0.00;;;29.60;35.50;;;;;;5058768;28;20051;-55
2022/06/07 12:18:02;;;;;;;1.05;0.00;;;29.60;35.20;;;;;;5059066;28;20048;-56
2022/06/07 12:20:33;;;;;;;0.65;0.00;;;29.60;34.90;;;;;;5053215;28;20501;-57
2022/06/07 12:23:16;;;;;;;1.65;0.10;;;29.60;34.80;;;;;;5046674;28;20048;-45
2022/06/07 12:26:00;;;;;;;0.17;0.00;;;29.70;34.80;;;;;;5049144;28;20037;-56
2022/06/07 12:28:30;;;;;;;1.75;0.00;;;29.70;34.90;;;;;;5056911;28;20828;-57
2022/06/07 12:30:57;;;;;;;0.38;0.00;;;29.70;34.90;;;;;;5051766;28;20052;-57
2022/06/07 12:33:28;;;;;;;4.05;0.20;;;29.70;34.80;;;;;;5054054;28;20041;-56
2022/06/07 12:36:01;;;;;;;0.80;0.00;;;29.70;35.00;;;;;;5047353;28;20126;-59
2022/06/07 12:38:30;;;;;;;0.20;0.00;;;29.70;35.20;;;;;;5052078;28;20127;-54
2022/06/07 12:41:03;;;;;;;0.10;0.00;;;29.70;35.30;;;;;;5051432;28;20117;-54
2022/06/07 12:43:32;;;;;;;0.45;0.10;;;29.80;35.40;;;;;;5069113;28;20067;-52
2022/06/07 12:46:04;;;;;;;0.70;0.10;;;29.90;35.70;;;;;;5055911;28;20048;-46
2022/06/07 12:48:38;;;;;;;0.10;0.00;;;29.90;35.60;;;;;;5054279;28;20047;-55
2022/06/07 12:51:21;;;;;;;1.65;0.00;;;29.90;35.70;;;;;;5059752;28;20143;-47
2022/06/07 12:53:50;;;;;;;0.70;0.10;;;30.00;35.60;;;;;;5056203;28;20097;-50
2022/06/07 12:56:19;;;;;;;1.58;0.10;;;30.00;35.50;;;;;;5059486;28;20045;-59
2022/06/07 12:58:52;;;;;;;0.30;0.10;;;30.10;35.60;;;;;;5054928;28;20491;-56
2022/06/07 13:01:25;;;;;;;0.10;0.00;;;30.10;35.70;;;;;;5052862;28;20482;-58
2022/06/07 13:03:55;;;;;;;0.70;0.63;;;30.10;35.70;;;;;;5057291;28;20048;-59
2022/06/07 13:06:24;;;;;;;0.10;0.00;;;30.20;35.70;;;;;;5049239;28;20052;-59
2022/06/07 13:09:01;;;;;;;0.85;0.00;;;30.20;35.60;;;;;;5052328;28;20047;-64
2022/06/07 13:11:33;;;;;;;1.45;0.00;;;30.20;35.40;;;;;;5057854;28;20057;-57
2022/06/07 13:14:01;;;;;;;0.17;0.10;;;30.30;35.90;;;;;;5050890;28;20050;-58
2022/06/07 13:16:36;;;;;;;0.13;0.00;;;30.30;36.20;;;;;;5049850;28;20075;-43
2022/06/07 13:19:08;;;;;;;2.38;0.10;;;30.30;35.60;;;;;;5059164;28;20052;-56
2022/06/07 13:21:37;;;;;;;0.40;0.20;;;30.30;35.70;;;;;;5054998;28;20517;-51
2022/06/07 13:24:05;;;;;;;0.10;0.00;;;30.40;35.70;;;;;;5055049;28;20051;-58
2022/06/07 13:26:42;;;;;;;2.13;0.65;;;30.40;35.50;;;;;;5048654;28;20045;-52
2022/06/07 13:29:18;;;;;;;0.20;0.10;;;30.50;35.70;;;;;;5051025;28;20313;-51
2022/06/07 13:31:53;;;;;;;0.00;0.00;;;30.50;35.60;;;;;;5048083;28;20040;-48
2022/06/07 13:34:23;;;;;;;0.08;0.08;;;30.50;35.20;;;;;;5057164;28;20836;-56